Time;durP1;ratioP1;P1;durP2;ratioP2;P2;SDS_P1;SDS_P2;PMS_P1;PMS_P2;Temp;Humidity;BMP_temperature;BMP_pressure;BME280_temperature;BME280_humidity;BME280_pressure;Samples;Min_cycle;Max_cycle;Signal;HPM_P1;HPM_P2
2023/03/24 00:01:29;;;;;;;14.55;2.63;;;;;;;5.92;100.00;97606.94;4936043;29;20524;-79
2023/03/24 00:03:59;;;;;;;13.00;1.92;;;;;;;5.91;100.00;97610.56;4917265;29;20038;-80
2023/03/24 00:06:33;;;;;;;8.30;2.03;;;;;;;5.86;100.00;97600.59;4950416;29;20500;-81
2023/03/24 00:09:05;;;;;;;10.23;1.50;;;;;;;5.84;100.00;97603.41;4944624;29;20039;-81
2023/03/24 00:11:35;;;;;;;8.52;1.98;;;;;;;5.82;100.00;97600.19;4934204;29;20035;-81
2023/03/24 00:14:04;;;;;;;7.20;1.85;;;;;;;5.78;100.00;97598.91;4930914;29;20551;-81
2023/03/24 00:16:33;;;;;;;12.40;1.98;;;;;;;5.74;100.00;97597.66;4950384;28;20031;-81
2023/03/24 00:19:02;;;;;;;9.00;1.98;;;;;;;5.73;100.00;97600.47;4935099;29;20531;-81
2023/03/24 00:21:31;;;;;;;8.52;1.67;;;;;;;5.70;100.00;97606.91;4933576;29;20061;-80
2023/03/24 00:24:01;;;;;;;14.13;1.85;;;;;;;5.71;100.00;97600.66;4935882;29;20121;-79
2023/03/24 00:26:30;;;;;;;11.43;2.03;;;;;;;5.71;100.00;97611.13;4956464;28;20412;-80
2023/03/24 00:28:58;;;;;;;10.23;2.08;;;;;;;5.71;100.00;97611.13;4900054;29;20035;-80
2023/03/24 00:31:26;;;;;;;13.63;1.75;;;;;;;5.66;100.00;97608.25;4928678;29;20075;-79
2023/03/24 00:33:54;;;;;;;15.82;2.13;;;;;;;5.67;100.00;97608.06;4903342;29;20041;-79
2023/03/24 00:36:24;;;;;;;11.32;1.65;;;;;;;5.66;100.00;97605.63;4931060;28;20054;-79
2023/03/24 00:38:52;;;;;;;13.77;1.88;;;;;;;5.68;100.00;97611.50;4947549;29;20095;-79
2023/03/24 00:41:21;;;;;;;16.95;3.92;;;;;;;5.68;100.00;97612.31;4936366;28;20038;-79
2023/03/24 00:43:49;;;;;;;14.50;1.88;;;;;;;5.73;100.00;97619.63;4926679;29;20042;-79
2023/03/24 00:46:27;;;;;;;11.05;1.98;;;;;;;5.73;100.00;97614.41;4951722;28;20031;-79
2023/03/24 00:49:01;;;;;;;10.32;1.83;;;;;;;5.77;100.00;97622.69;4908267;29;20080;-79
2023/03/24 00:51:40;;;;;;;11.93;1.77;;;;;;;5.85;100.00;97619.97;4932282;29;20090;-79
2023/03/24 00:54:12;;;;;;;10.25;1.63;;;;;;;5.88;100.00;97619.59;4919725;29;20066;-79
2023/03/24 00:56:42;;;;;;;12.27;2.00;;;;;;;5.95;100.00;97624.91;4948682;28;20058;-79
2023/03/24 00:59:12;;;;;;;15.60;1.65;;;;;;;5.99;100.00;97628.78;4970641;28;20035;-79
2023/03/24 01:01:42;;;;;;;11.18;2.58;;;;;;;6.01;100.00;97636.47;4966954;28;20058;-79
2023/03/24 01:04:10;;;;;;;11.93;2.03;;;;;;;6.10;100.00;97635.38;4965270;28;20602;-79
2023/03/24 01:06:40;;;;;;;16.48;1.88;;;;;;;6.13;100.00;97642.88;4938272;28;20035;-79
2023/03/24 01:09:11;;;;;;;13.00;2.63;;;;;;;6.20;100.00;97641.16;4935718;28;20402;-79
2023/03/24 01:11:42;;;;;;;19.85;3.67;;;;;;;6.25;100.00;97630.13;4946377;28;20178;-79
2023/03/24 01:14:13;;;;;;;14.25;2.05;;;;;;;6.28;100.00;97632.38;4947812;28;20039;-79
2023/03/24 01:16:43;;;;;;;11.48;1.63;;;;;;;6.31;100.00;97629.38;4938420;28;20043;-76
2023/03/24 01:19:13;;;;;;;13.57;1.70;;;;;;;6.32;100.00;97625.72;4954031;28;20034;-76
2023/03/24 01:21:41;;;;;;;7.68;1.83;;;;;;;6.29;100.00;97625.31;4970969;28;20045;-79
2023/03/24 01:24:09;;;;;;;13.75;1.73;;;;;;;6.32;100.00;97628.34;4956271;28;20045;-79
2023/03/24 01:26:37;;;;;;;10.13;1.42;;;;;;;6.30;100.00;97627.75;4970737;28;20073;-79
2023/03/24 01:29:07;;;;;;;12.52;1.73;;;;;;;6.30;100.00;97622.50;4949422;28;20487;-78
2023/03/24 01:31:37;;;;;;;6.50;1.50;;;;;;;6.29;100.00;97617.44;4951279;29;20103;-77
2023/03/24 01:34:06;;;;;;;11.32;1.90;;;;;;;6.26;100.00;97620.44;4948921;28;20159;-76
2023/03/24 01:36:34;;;;;;;11.73;1.80;;;;;;;6.23;100.00;97618.19;4964033;28;20035;-78
2023/03/24 01:39:04;;;;;;;16.58;2.55;;;;;;;6.25;100.00;97616.19;4952550;28;20046;-79
2023/03/24 01:41:35;;;;;;;12.98;1.83;;;;;;;6.24;100.00;97609.31;4967343;28;20031;-79
2023/03/24 01:44:27;;;;;;;10.77;2.60;;;;;;;6.22;100.00;97617.38;4948445;28;20073;-79
2023/03/24 01:46:57;;;;;;;16.27;2.10;;;;;;;6.19;100.00;97615.94;4959755;28;20126;-78
2023/03/24 01:50:01;;;;;;;16.15;1.88;;;;;;;6.16;100.00;97607.63;4944646;28;20034;-78
2023/03/24 01:52:35;;;;;;;16.75;2.28;;;;;;;6.17;100.00;97622.34;4959106;28;20476;-79
2023/03/24 01:55:09;;;;;;;9.45;1.50;;;;;;;6.16;100.00;97625.97;4964757;28;20035;-79
2023/03/24 01:57:42;;;;;;;6.32;1.55;;;;;;;6.11;100.00;97618.69;4967265;28;20379;-79
2023/03/24 02:00:15;;;;;;;10.75;2.05;;;;;;;6.08;100.00;97622.47;4947556;28;20403;-78
2023/03/24 02:03:20;;;;;;;9.73;1.90;;;;;;;6.02;100.00;97617.94;4934831;28;20053;-79
2023/03/24 02:05:56;;;;;;;12.20;1.77;;;;;;;5.99;100.00;97622.75;4952547;28;20042;-78
2023/03/24 02:08:48;;;;;;;6.53;1.40;;;;;;;5.95;100.00;97614.44;4951337;28;20035;-79
2023/03/24 02:11:20;;;;;;;10.07;1.90;;;;;;;5.92;100.00;97612.19;4969199;28;20038;-76
2023/03/24 02:13:53;;;;;;;;;;;;;;;5.85;100.00;97609.47;4950995;28;20058;-77
2023/03/24 02:16:30;;;;;;;13.23;1.88;;;;;;;5.83;100.00;97622.78;4873871;28;20484;-79
2023/03/24 02:19:37;;;;;;;12.88;1.40;;;;;;;5.86;100.00;97618.97;4887127;28;20049;-78
2023/03/24 02:22:31;;;;;;;16.38;2.13;;;;;;;5.86;100.00;97620.78;4961089;28;20089;-78
2023/03/24 02:25:21;;;;;;;9.73;1.90;;;;;;;5.84;100.00;97616.53;4944543;28;20046;-79
2023/03/24 02:28:08;;;;;;;10.73;2.92;;;;;;;5.80;100.00;97614.44;4962759;28;20034;-79
2023/03/24 02:31:03;;;;;;;9.25;1.65;;;;;;;5.84;100.00;97621.75;4962356;28;20043;-78
2023/03/24 02:34:06;;;;;;;17.30;1.70;;;;;;;5.83;100.00;97616.69;4954958;28;20801;-79
2023/03/24 02:36:39;;;;;;;11.05;1.40;;;;;;;5.82;100.00;97618.53;4941184;28;20050;-76
2023/03/24 02:39:21;;;;;;;12.75;2.20;;;;;;;5.80;100.00;97606.59;4941257;28;20038;-76
2023/03/24 02:42:10;;;;;;;9.45;1.58;;;;;;;5.75;100.00;97594.03;4938021;28;20074;-79
2023/03/24 02:44:55;;;;;;;9.25;1.50;;;;;;;5.72;100.00;97602.25;4921244;28;20061;-79
2023/03/24 02:47:40;;;;;;;11.00;1.33;;;;;;;5.69;100.00;97595.59;4978584;28;20105;-79
2023/03/24 02:50:29;;;;;;;13.82;1.75;;;;;;;5.66;100.00;97587.28;4961000;28;20061;-79
2023/03/24 02:53:15;;;;;;;9.00;1.15;;;;;;;5.66;100.00;97593.34;4954518;28;20030;-79
2023/03/24 02:56:12;;;;;;;10.30;1.50;;;;;;;5.65;100.00;97591.72;4964857;28;20122;-79
2023/03/24 02:58:51;;;;;;;13.82;2.40;;;;;;;5.66;100.00;97595.13;4953566;28;20054;-78
2023/03/24 03:01:34;;;;;;;9.75;1.20;;;;;;;5.68;100.00;97596.59;4949954;28;20106;-77
2023/03/24 03:04:31;;;;;;;11.93;1.98;;;;;;;5.73;100.00;97597.84;4954281;28;20035;-76
2023/03/24 03:07:08;;;;;;;10.32;1.65;;;;;;;5.76;100.00;97594.84;4941244;28;20023;-79
2023/03/24 03:09:54;;;;;;;14.25;1.60;;;;;;;5.82;100.00;97594.13;4954765;28;20530;-79
2023/03/24 03:12:24;;;;;;;19.23;1.90;;;;;;;5.81;100.00;97598.53;4978386;28;20030;-78
2023/03/24 03:15:05;;;;;;;15.55;1.77;;;;;;;5.85;100.00;97593.75;4937991;28;20086;-79
2023/03/24 03:17:41;;;;;;;13.32;1.40;;;;;;;5.88;100.00;97592.56;4981452;28;20040;-79
2023/03/24 03:20:17;;;;;;;13.30;1.50;;;;;;;5.86;100.00;97595.38;4961866;28;20048;-78
2023/03/24 03:22:51;;;;;;;9.90;1.83;;;;;;;5.88;100.00;97600.44;4956995;28;20053;-78
2023/03/24 03:25:24;;;;;;;14.90;1.90;;;;;;;5.90;100.00;97590.56;4972593;28;20035;-78
2023/03/24 03:27:58;;;;;;;14.57;1.88;;;;;;;5.92;100.00;97591.22;4962150;28;20051;-78
2023/03/24 03:30:37;;;;;;;15.48;2.13;;;;;;;5.94;100.00;97581.34;4969504;28;20039;-76
2023/03/24 03:33:23;;;;;;;9.10;1.77;;;;;;;5.95;100.00;97585.59;4951562;28;20047;-77
2023/03/24 03:35:53;;;;;;;15.60;2.00;;;;;;;5.93;100.00;97582.34;4921024;28;20041;-76
2023/03/24 03:38:36;;;;;;;16.30;1.73;;;;;;;5.94;100.00;97587.41;4938565;28;20034;-77
2023/03/24 03:41:05;;;;;;;21.92;2.40;;;;;;;5.94;100.00;97594.47;4965392;28;20038;-79
2023/03/24 03:43:36;;;;;;;16.13;2.08;;;;;;;5.92;100.00;97589.41;4961047;28;20097;-78
2023/03/24 03:46:06;;;;;;;14.27;2.08;;;;;;;5.97;100.00;97599.34;4962770;28;20075;-77
2023/03/24 03:48:38;;;;;;;17.40;2.30;;;;;;;5.98;100.00;97589.66;4942243;28;20078;-76
2023/03/24 03:51:08;;;;;;;18.77;2.50;;;;;;;5.98;100.00;97590.47;4944845;28;20045;-79
2023/03/24 03:53:52;;;;;;;15.73;2.83;;;;;;;6.02;100.00;97580.44;4956457;28;20034;-79
2023/03/24 03:56:26;;;;;;;22.00;1.85;;;;;;;6.02;100.00;97583.06;4939066;28;20035;-78
2023/03/24 03:59:36;;;;;;;16.63;2.40;;;;;;;6.04;100.00;97589.75;4927541;29;20039;-78
2023/03/24 04:02:33;;;;;;;19.55;2.72;;;;;;;6.04;100.00;97581.88;4931610;29;20089;-76
2023/03/24 04:05:26;;;;;;;21.30;3.22;;;;;;;6.07;100.00;97594.63;4947566;28;20927;-77
2023/03/24 04:08:51;;;;;;;19.75;2.38;;;;;;;6.05;100.00;97588.75;4930947;28;20109;-79
2023/03/24 04:11:39;;;;;;;17.98;2.53;;;;;;;6.10;100.00;97588.19;4924848;28;20043;-79
2023/03/24 04:14:16;;;;;;;18.42;2.78;;;;;;;6.12;100.00;97572.25;4948370;28;20027;-79
2023/03/24 04:17:31;;;;;;;18.50;1.98;;;;;;;6.13;100.00;97568.66;4933196;29;20047;-76
2023/03/24 04:20:11;;;;;;;20.13;2.85;;;;;;;6.12;100.00;97569.66;4932078;29;20023;-76
2023/03/24 04:22:40;;;;;;;17.55;3.20;;;;;;;6.14;100.00;97563.22;4916857;28;20547;-78
2023/03/24 04:25:29;;;;;;;21.17;2.90;;;;;;;6.18;100.00;97566.31;4933960;29;20045;-78
2023/03/24 04:28:25;;;;;;;19.85;2.90;;;;;;;6.23;100.00;97563.91;4948649;28;20031;-78
2023/03/24 04:31:07;;;;;;;18.33;3.88;;;;;;;6.27;100.00;97573.03;4913864;28;20114;-78
2023/03/24 04:33:49;;;;;;;22.27;3.03;;;;;;;6.28;100.00;97581.69;4930350;29;20046;-78
2023/03/24 04:36:27;;;;;;;23.13;2.25;;;;;;;6.27;100.00;97570.41;4947650;28;20039;-78
2023/03/24 04:39:27;;;;;;;16.42;2.33;;;;;;;6.34;100.00;97570.44;4931552;28;20066;-78
2023/03/24 04:42:03;;;;;;;26.90;3.28;;;;;;;6.35;100.00;97573.91;4916508;29;20039;-77
2023/03/24 04:44:33;;;;;;;20.77;2.58;;;;;;;6.41;100.00;97578.38;4946955;29;20043;-79
2023/03/24 04:47:57;;;;;;;17.70;2.90;;;;;;;6.48;100.00;97575.84;4907481;29;20058;-79
2023/03/24 04:51:02;;;;;;;13.38;1.95;;;;;;;6.50;100.00;97577.25;4917125;28;20035;-76
2023/03/24 04:53:47;;;;;;;16.88;2.72;;;;;;;6.54;100.00;97577.69;4933910;29;20027;-76
2023/03/24 04:56:33;;;;;;;19.98;2.25;;;;;;;6.56;100.00;97581.75;4929613;29;20031;-79
2023/03/24 04:59:06;;;;;;;17.52;2.55;;;;;;;6.62;100.00;97588.06;4953669;28;20538;-78
2023/03/24 05:01:36;;;;;;;13.50;2.15;;;;;;;6.63;100.00;97580.97;4950795;28;20082;-78
2023/03/24 05:04:40;;;;;;;18.25;2.47;;;;;;;6.66;100.00;97583.22;4945358;28;20038;-78
2023/03/24 05:07:16;;;;;;;20.67;3.63;;;;;;;6.60;100.00;97597.94;4935050;28;20513;-77
2023/03/24 05:09:48;;;;;;;17.35;2.88;;;;;;;6.61;100.00;97594.28;4936158;28;20038;-78
2023/03/24 05:12:18;;;;;;;15.85;2.40;;;;;;;6.60;100.00;97597.94;4957942;28;20034;-78
2023/03/24 05:15:06;;;;;;;13.82;2.47;;;;;;;6.60;100.00;97597.09;4940961;28;20044;-78
2023/03/24 05:17:36;;;;;;;24.00;3.25;;;;;;;6.61;100.00;97596.91;4956752;28;20035;-79
2023/03/24 05:20:10;;;;;;;26.13;3.88;;;;;;;6.60;100.00;97600.56;4962714;28;20032;-78
2023/03/24 05:22:40;;;;;;;19.95;2.53;;;;;;;6.59;100.00;97591.06;4955608;28;20042;-78
2023/03/24 05:25:09;;;;;;;18.55;2.70;;;;;;;6.56;100.00;97581.75;4953768;28;20030;-77
2023/03/24 05:27:37;;;;;;;13.85;2.10;;;;;;;6.53;100.00;97573.47;4961837;28;20126;-78
2023/03/24 05:30:25;;;;;;;12.02;2.03;;;;;;;6.44;100.00;97578.00;4925190;28;20042;-78
2023/03/24 05:33:02;;;;;;;25.02;3.10;;;;;;;6.39;100.00;97583.81;4968553;28;20113;-79
2023/03/24 05:35:30;;;;;;;17.65;4.00;;;;;;;6.32;100.00;97594.25;4948168;28;20037;-78
2023/03/24 05:37:58;;;;;;;23.25;3.70;;;;;;;6.39;100.00;97596.94;4953273;28;20550;-78
2023/03/24 05:40:26;;;;;;;16.27;2.75;;;;;;;6.41;100.00;97591.50;4971647;28;20035;-78
2023/03/24 05:43:04;;;;;;;18.90;3.00;;;;;;;6.47;100.00;97587.34;4954571;28;20475;-78
2023/03/24 05:45:37;;;;;;;20.40;3.05;;;;;;;6.54;100.00;97599.50;4937021;28;20746;-78
2023/03/24 05:48:05;;;;;;;21.45;2.30;;;;;;;6.58;100.00;97606.00;4954756;28;20032;-78
2023/03/24 05:50:53;;;;;;;15.82;2.53;;;;;;;6.65;100.00;97607.88;4958377;28;20039;-77
2023/03/24 05:53:21;;;;;;;17.55;2.20;;;;;;;6.68;100.00;97610.09;4949462;28;20462;-78
2023/03/24 05:56:11;;;;;;;33.92;3.40;;;;;;;6.70;100.00;97610.75;4964780;28;20492;-78
2023/03/24 05:59:01;;;;;;;20.52;3.63;;;;;;;6.74;100.00;97619.84;4944574;28;20057;-78
2023/03/24 06:01:59;;;;;;;14.85;2.47;;;;;;;6.74;100.00;97625.09;4942519;28;20051;-78
2023/03/24 06:04:44;;;;;;;15.23;2.90;;;;;;;6.71;100.00;97620.22;4968082;28;20034;-78
2023/03/24 06:07:18;;;;;;;22.40;2.42;;;;;;;6.70;100.00;97621.25;4945049;28;20070;-76
2023/03/24 06:09:49;;;;;;;21.02;3.83;;;;;;;6.72;100.00;97621.06;4963099;28;20046;-75
2023/03/24 06:12:20;;;;;;;17.70;2.63;;;;;;;6.73;100.00;97610.34;4948617;28;20382;-76
2023/03/24 06:15:00;;;;;;;22.92;3.30;;;;;;;6.71;100.00;97617.59;4966285;28;20062;-76
2023/03/24 06:17:31;;;;;;;21.77;2.90;;;;;;;6.73;100.00;97606.91;4953799;28;20043;-78
2023/03/24 06:20:13;;;;;;;19.15;3.22;;;;;;;6.73;100.00;97597.22;4942868;29;20074;-79
2023/03/24 06:22:47;;;;;;;22.48;2.65;;;;;;;6.75;100.00;97611.00;4946245;28;20031;-79
2023/03/24 06:25:20;;;;;;;23.63;3.22;;;;;;;6.74;100.00;97606.72;4962345;28;20041;-78
2023/03/24 06:28:02;;;;;;;18.95;3.10;;;;;;;6.71;100.00;97604.47;4945432;28;20027;-78
2023/03/24 06:30:32;;;;;;;18.98;3.25;;;;;;;6.73;100.00;97601.66;4958120;28;20047;-78
2023/03/24 06:33:01;;;;;;;22.08;3.42;;;;;;;6.68;100.00;97599.59;4954676;28;20023;-79
2023/03/24 06:35:28;;;;;;;27.20;2.92;;;;;;;6.70;100.00;97606.28;4950496;28;20046;-79
2023/03/24 06:38:06;;;;;;;22.40;3.03;;;;;;;6.68;100.00;97604.84;4946114;28;20058;-78
2023/03/24 06:40:36;;;;;;;25.48;3.63;;;;;;;6.70;100.00;97597.63;4949007;28;20090;-76
2023/03/24 06:43:07;;;;;;;22.00;3.50;;;;;;;6.70;100.00;97601.03;4951826;28;20558;-76
2023/03/24 06:45:39;;;;;;;23.85;4.22;;;;;;;6.73;100.00;97612.16;4929983;28;20731;-78
2023/03/24 06:48:13;;;;;;;14.43;2.38;;;;;;;6.73;100.00;97620.03;4949206;28;20037;-79
2023/03/24 06:50:41;;;;;;;32.42;4.75;;;;;;;6.73;100.00;97614.78;4953252;28;20031;-78
2023/03/24 06:53:11;;;;;;;21.10;2.55;;;;;;;6.74;100.00;97614.59;4945044;28;20090;-78
2023/03/24 06:55:39;;;;;;;19.65;3.28;;;;;;;6.71;100.00;97614.97;4960642;28;20047;-79
2023/03/24 06:58:09;;;;;;;18.60;2.83;;;;;;;6.70;100.00;97608.91;4946943;29;20682;-79
2023/03/24 07:00:45;;;;;;;17.10;2.80;;;;;;;6.66;100.00;97614.72;4917880;29;20440;-79
2023/03/24 07:03:37;;;;;;;24.15;3.05;;;;;;;6.66;100.00;97615.53;4925538;29;20056;-79
2023/03/24 07:06:32;;;;;;;16.25;2.40;;;;;;;6.71;100.00;97620.22;4931840;29;20361;-78
2023/03/24 07:09:10;;;;;;;11.32;2.33;;;;;;;6.80;100.00;97620.91;4915644;29;20043;-79
2023/03/24 07:11:39;;;;;;;22.65;3.13;;;;;;;6.83;100.00;97621.34;4944303;29;20040;-78
2023/03/24 07:14:07;;;;;;;21.33;2.28;;;;;;;6.90;100.00;97615.31;4937388;29;20126;-78
2023/03/24 07:16:36;;;;;;;13.77;2.13;;;;;;;6.97;100.00;97615.38;4941591;29;20037;-78
2023/03/24 07:19:31;;;;;;;18.38;2.38;;;;;;;7.00;100.00;97607.09;4917981;29;20071;-79
2023/03/24 07:22:17;;;;;;;8.90;1.80;;;;;;;7.05;100.00;97616.06;4938011;29;20035;-78
2023/03/24 07:25:06;;;;;;;16.98;2.08;;;;;;;7.05;100.00;97626.56;4940365;29;20031;-78
2023/03/24 07:27:53;;;;;;;14.90;2.00;;;;;;;7.12;100.00;97634.47;4903159;28;20058;-78
2023/03/24 07:30:21;;;;;;;15.73;2.47;;;;;;;7.13;100.00;97637.91;4940010;29;20105;-78
2023/03/24 07:32:49;;;;;;;9.35;1.80;;;;;;;7.21;100.00;97635.16;4929063;29;20050;-78
2023/03/24 07:35:17;;;;;;;18.58;2.55;;;;;;;7.21;100.00;97635.16;4928417;29;20035;-79
2023/03/24 07:37:49;;;;;;;16.08;1.77;;;;;;;7.31;100.00;97638.22;4950541;29;20039;-79
2023/03/24 07:40:19;;;;;;;13.00;3.40;;;;;;;7.38;100.00;97632.19;4915745;29;20042;-78
2023/03/24 07:42:48;;;;;;;9.48;2.00;;;;;;;7.43;100.00;97635.88;4935068;29;20496;-79
2023/03/24 07:45:45;;;;;;;14.00;1.88;;;;;;;7.49;100.00;97634.28;4922025;29;20566;-79
2023/03/24 07:48:15;;;;;;;10.57;2.17;;;;;;;7.54;100.00;97629.28;4928170;29;20027;-79
2023/03/24 07:50:45;;;;;;;15.43;1.85;;;;;;;7.59;100.00;97636.56;4944825;28;20563;-78
2023/03/24 07:53:34;;;;;;;11.27;1.92;;;;;;;7.65;100.00;97637.59;4928234;28;20054;-77
2023/03/24 07:56:03;;;;;;;12.82;1.80;;;;;;;7.68;100.00;97640.66;4949979;28;20031;-76
2023/03/24 07:58:30;;;;;;;18.25;2.35;;;;;;;7.74;100.00;97639.06;4940268;28;20452;-76
2023/03/24 08:01:09;;;;;;;15.07;2.60;;;;;;;7.77;100.00;97646.53;4953320;28;20035;-78
2023/03/24 08:03:43;;;;;;;11.35;1.88;;;;;;;7.76;100.00;97642.31;4947764;28;20043;-79
2023/03/24 08:06:17;;;;;;;14.75;2.38;;;;;;;7.75;100.00;97639.88;4965532;28;20035;-78
2023/03/24 08:08:51;;;;;;;16.75;2.30;;;;;;;7.77;100.00;97637.88;4945602;28;20035;-78
2023/03/24 08:11:19;;;;;;;14.13;2.20;;;;;;;7.79;100.00;97630.56;4938729;28;20447;-78
2023/03/24 08:13:47;;;;;;;16.20;2.63;;;;;;;7.87;100.00;97630.41;4960161;28;20049;-78
2023/03/24 08:16:15;;;;;;;16.75;2.35;;;;;;;7.96;100.00;97624.97;4958830;28;20034;-78
2023/03/24 08:18:43;;;;;;;23.52;3.85;;;;;;;8.14;100.00;97627.03;4961937;28;20424;-79
2023/03/24 08:21:11;;;;;;;12.30;2.40;;;;;;;8.26;100.00;97625.47;4959631;28;20120;-79
2023/03/24 08:23:40;;;;;;;16.20;2.50;;;;;;;8.38;100.00;97622.25;4956439;28;20058;-79
2023/03/24 08:26:11;;;;;;;17.40;2.45;;;;;;;8.46;100.00;97621.25;4939396;28;20129;-78
2023/03/24 08:28:41;;;;;;;18.98;2.88;;;;;;;8.49;100.00;97619.03;4969322;28;20034;-78
2023/03/24 08:31:12;;;;;;;18.40;2.63;;;;;;;8.51;100.00;97616.19;4955627;28;20447;-78
2023/03/24 08:33:42;;;;;;;14.13;2.45;;;;;;;8.50;100.00;97625.94;4983700;28;20047;-78
2023/03/24 08:36:12;;;;;;;18.77;2.65;;;;;;;8.50;100.00;97615.41;4971070;28;20118;-76
2023/03/24 08:38:41;;;;;;;13.07;2.33;;;;;;;8.56;100.00;97604.09;4933619;29;20126;-76
2023/03/24 08:41:08;;;;;;;13.52;2.45;;;;;;;8.66;100.00;97616.03;4963596;28;20547;-79
2023/03/24 08:43:36;;;;;;;16.65;3.15;;;;;;;8.76;100.00;97607.75;4961328;28;20483;-78
2023/03/24 08:46:07;;;;;;;14.23;3.20;;;;;;;8.78;100.00;97611.78;4956523;28;20543;-79
2023/03/24 08:48:39;;;;;;;14.73;2.72;;;;;;;8.88;100.00;97606.13;4970638;28;20034;-79
2023/03/24 08:51:18;;;;;;;13.18;2.22;;;;;;;9.08;100.00;97615.81;4949832;28;20035;-78
2023/03/24 08:53:50;;;;;;;18.67;2.22;;;;;;;9.21;100.00;97607.06;4963369;28;20727;-79
2023/03/24 08:56:20;;;;;;;16.52;2.80;;;;;;;9.23;100.00;97605.06;4970798;28;20030;-76
2023/03/24 08:58:52;;;;;;;19.17;2.72;;;;;;;9.33;100.00;97604.63;4963921;28;20053;-76
2023/03/24 09:01:21;;;;;;;11.57;1.98;;;;;;;9.50;100.00;97599.72;4944662;29;20475;-78
2023/03/24 09:03:49;;;;;;;15.82;2.28;;;;;;;9.57;100.00;97596.22;4946762;28;20031;-78
2023/03/24 09:06:17;;;;;;;14.98;2.38;;;;;;;9.72;100.00;97586.22;4955462;28;20077;-78
2023/03/24 09:08:45;;;;;;;16.42;2.95;;;;;;;9.78;100.00;97582.75;4950492;28;20047;-79
2023/03/24 09:11:18;;;;;;;20.90;2.38;;;;;;;9.85;100.00;97588.00;4947690;28;20110;-79
2023/03/24 09:13:46;;;;;;;12.15;1.80;;;;;;;9.79;100.00;97589.63;4956260;28;20106;-79
2023/03/24 09:16:16;;;;;;;19.80;3.13;;;;;;;9.91;100.00;97588.97;4949271;28;20061;-78
2023/03/24 09:18:45;;;;;;;18.10;2.50;;;;;;;9.99;100.00;97587.91;4949783;28;20404;-78
2023/03/24 09:21:13;;;;;;;13.15;2.72;;;;;;;10.01;100.00;97585.88;4961775;28;20115;-78
2023/03/24 09:23:41;;;;;;;13.07;2.35;;;;;;;10.00;100.00;97586.91;4971807;28;20046;-78
2023/03/24 09:26:11;;;;;;;14.43;2.25;;;;;;;10.07;100.00;97597.41;4947805;28;20035;-78
2023/03/24 09:28:41;;;;;;;8.30;1.42;;;;;;;10.00;100.00;97602.75;4960788;28;20075;-78
2023/03/24 09:31:11;;;;;;;14.70;1.70;;;;;;;9.83;100.00;97603.22;4941118;28;21294;-78
2023/03/24 09:33:41;;;;;;;5.80;1.58;;;;;;;9.65;100.00;97580.97;4940637;28;20062;-78
2023/03/24 09:36:11;;;;;;;8.10;1.45;;;;;;;9.48;100.00;97593.00;4954350;28;20073;-78
2023/03/24 09:38:40;;;;;;;12.40;1.77;;;;;;;9.38;100.00;97588.19;4969524;28;20042;-78
2023/03/24 09:41:28;;;;;;;3.97;0.82;;;;;;;9.30;100.00;97591.88;4966631;28;20034;-78
2023/03/24 09:44:05;;;;;;;9.57;1.20;;;;;;;9.25;100.00;97596.94;4940583;28;20047;-78
2023/03/24 09:47:12;;;;;;;8.75;1.50;;;;;;;9.25;100.00;97599.56;4941819;28;20106;-78
2023/03/24 09:49:42;;;;;;;15.88;1.50;;;;;;;9.35;100.00;97599.94;4947684;28;20054;-78
2023/03/24 09:52:18;;;;;;;10.82;1.65;;;;;;;9.37;100.00;97605.81;4956466;28;20151;-78
2023/03/24 09:54:49;;;;;;;10.07;1.67;;;;;;;9.42;100.00;97602.56;4958479;28;20042;-78
2023/03/24 09:57:25;;;;;;;12.73;1.70;;;;;;;9.44;100.00;97597.91;4946494;28;20043;-78
2023/03/24 09:59:55;;;;;;;15.23;2.65;;;;;;;9.50;100.00;97596.25;4931604;29;20114;-78
2023/03/24 10:02:23;;;;;;;15.02;2.53;;;;;;;9.48;100.00;97596.47;4914325;28;20034;-78
2023/03/24 10:04:51;;;;;;;12.82;1.65;;;;;;;9.55;100.00;97599.91;4970231;28;20039;-78
2023/03/24 10:07:27;;;;;;;9.60;1.77;;;;;;;9.58;100.00;97601.31;4959604;28;20038;-79
2023/03/24 10:09:59;;;;;;;9.93;1.80;;;;;;;9.51;100.00;97608.41;4943992;28;20034;-78
2023/03/24 10:12:45;;;;;;;13.98;2.15;;;;;;;9.42;100.00;97605.19;4961532;28;20037;-76
2023/03/24 10:15:23;;;;;;;;;;;;;;;9.17;100.00;97596.13;4928550;28;20047;-76
2023/03/24 10:17:56;;;;;;;;;;;;;;;9.18;100.00;97599.56;4952594;28;19924;-79
2023/03/24 10:20:32;;;;;;;13.35;2.97;;;;;;;9.43;100.00;97585.72;4968765;28;19922;-76
2023/03/24 10:23:05;;;;;;;;;;;;;;;9.47;100.00;97580.84;4941929;28;20034;-76
2023/03/24 10:25:41;;;;;;;13.00;2.15;;;;;;;9.68;100.00;97572.63;4936328;28;20895;-77
2023/03/24 10:28:33;;;;;;;;;;;;;;;9.87;100.00;97548.22;4970476;28;20026;-78
2023/03/24 10:31:10;;;;;;;10.15;1.33;;;;;;;9.88;100.00;97566.47;4913800;28;20354;-78
2023/03/24 10:33:43;;;;;;;12.13;1.60;;;;;;;10.01;100.00;97557.69;4953327;28;20165;-78
2023/03/24 10:36:20;;;;;;;10.55;1.77;;;;;;;10.14;100.00;97548.06;4947448;28;20043;-78
2023/03/24 10:38:50;;;;;;;14.10;2.10;;;;;;;10.25;100.00;97557.13;4959460;28;20042;-78
2023/03/24 10:41:22;;;;;;;12.07;1.80;;;;;;;10.27;100.00;97533.97;4969472;28;20046;-78
2023/03/24 10:43:54;;;;;;;12.30;1.98;;;;;;;10.28;100.00;97530.28;4958694;28;20034;-78
2023/03/24 10:46:26;;;;;;;13.10;2.35;;;;;;;10.23;100.00;97530.94;4951573;29;20028;-76
2023/03/24 10:49:30;;;;;;;9.75;1.40;;;;;;;10.15;100.00;97533.81;4946451;28;20054;-76
2023/03/24 10:52:02;;;;;;;10.55;1.10;;;;;;;10.28;100.00;97527.66;4912607;29;20123;-78
2023/03/24 10:54:31;;;;;;;4.03;0.95;;;;;;;10.51;100.00;97519.16;4971144;28;20038;-78
2023/03/24 10:57:01;;;;;;;5.97;1.00;;;;;;;10.72;100.00;97529.56;4969299;28;20046;-78
2023/03/24 10:59:34;;;;;;;4.82;0.95;;;;;;;10.88;100.00;97531.63;4944745;28;20039;-78
2023/03/24 11:02:10;;;;;;;5.35;0.98;;;;;;;10.83;100.00;97526.19;4951792;28;20039;-78
2023/03/24 11:04:40;;;;;;;;;;;;;;;10.69;100.00;97530.00;4956066;28;20414;-78
2023/03/24 11:07:11;;;;;;;8.57;1.30;;;;;;;10.78;100.00;97520.78;4959810;28;19918;-78
2023/03/24 11:09:44;;;;;;;3.63;0.90;;;;;;;10.87;100.00;97524.75;4938241;28;20039;-78
2023/03/24 11:12:33;;;;;;;11.20;1.30;;;;;;;10.87;100.00;97522.09;4925826;28;20067;-77
2023/03/24 11:15:18;;;;;;;7.05;0.95;;;;;;;10.93;100.00;97515.13;4962738;28;20050;-78
2023/03/24 11:17:55;;;;;;;5.05;0.90;;;;;;;11.03;100.00;97494.28;4954991;28;20556;-78
2023/03/24 11:20:33;;;;;;;9.82;1.42;;;;;;;10.89;100.00;97513.94;4968813;28;20042;-78
2023/03/24 11:23:08;;;;;;;8.65;1.65;;;;;;;10.66;100.00;97541.78;4955587;28;20126;-78
2023/03/24 11:25:38;;;;;;;5.30;1.05;;;;;;;10.29;100.00;97535.34;4944040;28;20118;-77
2023/03/24 11:28:08;;;;;;;6.47;1.20;;;;;;;10.11;100.00;97535.28;4970194;28;20488;-78
2023/03/24 11:30:49;;;;;;;10.38;1.17;;;;;;;10.23;100.00;97532.75;4955581;28;20042;-75
2023/03/24 11:33:19;;;;;;;5.85;1.17;;;;;;;10.49;100.00;97529.16;4958331;28;20039;-75
2023/03/24 11:35:49;;;;;;;7.82;0.90;;;;;;;10.70;100.00;97502.53;4951055;28;20035;-78
2023/03/24 11:38:28;;;;;;;7.93;1.40;;;;;;;10.83;100.00;97510.31;4970989;28;20079;-77
2023/03/24 11:41:06;;;;;;;7.70;0.75;;;;;;;11.11;100.00;97509.03;4956573;28;20032;-78
2023/03/24 11:43:33;;;;;;;10.88;1.73;;;;;;;11.29;100.00;97525.94;4965062;28;20086;-78
2023/03/24 11:46:16;;;;;;;9.07;1.23;;;;;;;11.33;100.00;97531.56;4958150;28;20039;-78
2023/03/24 11:48:47;;;;;;;8.45;1.48;;;;;;;11.37;100.00;97519.53;4964409;28;20031;-77
2023/03/24 11:51:38;;;;;;;6.45;0.82;;;;;;;11.35;100.00;97500.44;4952109;28;20050;-77
2023/03/24 11:54:18;;;;;;;4.47;1.13;;;;;;;11.42;100.00;97530.22;4898959;28;20472;-77
2023/03/24 11:56:58;;;;;;;12.18;1.48;;;;;;;11.48;100.00;97497.59;4945213;28;20041;-78
2023/03/24 11:59:35;;;;;;;7.30;1.45;;;;;;;11.58;100.00;97510.28;4970257;28;20035;-77
2023/03/24 12:02:19;;;;;;;8.05;1.15;;;;;;;11.47;100.00;97511.88;4943511;28;20054;-77
2023/03/24 12:04:50;;;;;;;11.68;1.45;;;;;;;11.47;100.00;97472.19;4964338;28;20066;-78
2023/03/24 12:07:35;;;;;;;3.67;0.90;;;;;;;11.22;100.00;97509.31;4945509;28;20523;-77
2023/03/24 12:10:32;;;;;;;6.90;0.82;;;;;;;11.20;100.00;97517.47;4940345;28;20039;-77